Time;durP1;ratioP1;P1;durP2;ratioP2;P2;SDS_P1;SDS_P2;PMS_P1;PMS_P2;Temp;Humidity;BMP_temperature;BMP_pressure;BME280_temperature;BME280_humidity;BME280_pressure;Samples;Min_cycle;Max_cycle;Signal;HPM_P1;HPM_P2
2021/09/29 00:01:16;;;;;;;1.88;0.70;;;21.20;99.90;;;;;;4936484;29;20059;-61
2021/09/29 00:03:42;;;;;;;1.38;0.45;;;21.20;99.90;;;;;;4936023;29;20551;-61
2021/09/29 00:06:08;;;;;;;1.58;0.50;;;21.20;99.90;;;;;;4936215;29;20062;-62
2021/09/29 00:08:33;;;;;;;1.40;0.60;;;21.20;99.90;;;;;;4936326;29;20110;-61
2021/09/29 00:10:59;;;;;;;1.30;0.70;;;21.20;99.90;;;;;;4936231;29;20031;-60
2021/09/29 00:13:26;;;;;;;2.95;0.65;;;21.20;99.90;;;;;;4936344;29;20039;-61
2021/09/29 00:15:55;;;;;;;2.15;0.70;;;21.10;99.90;;;;;;4935024;29;20421;-61
2021/09/29 00:18:22;;;;;;;1.77;0.68;;;21.10;99.90;;;;;;4935982;29;20457;-61
2021/09/29 00:20:48;;;;;;;1.17;0.40;;;21.10;99.90;;;;;;4936008;29;20171;-61
2021/09/29 00:23:13;;;;;;;1.42;0.57;;;21.10;99.90;;;;;;4935316;29;20063;-61
2021/09/29 00:25:39;;;;;;;1.95;0.60;;;21.10;99.90;;;;;;4935418;29;20059;-61
2021/09/29 00:28:04;;;;;;;2.45;0.68;;;21.10;99.90;;;;;;4936019;29;20035;-61
2021/09/29 00:30:35;;;;;;;2.75;0.75;;;21.10;99.90;;;;;;4935949;29;20028;-60
2021/09/29 00:33:02;;;;;;;2.63;0.60;;;21.10;99.90;;;;;;4935887;29;20019;-60
2021/09/29 00:35:28;;;;;;;1.73;0.60;;;21.10;99.90;;;;;;4935009;29;20111;-60
2021/09/29 00:37:54;;;;;;;2.78;0.82;;;21.10;99.90;;;;;;4936629;29;20516;-61
2021/09/29 00:40:19;;;;;;;1.35;0.70;;;21.00;99.90;;;;;;4935999;29;20020;-61
2021/09/29 00:42:45;;;;;;;1.70;0.60;;;21.00;99.90;;;;;;4935454;29;20111;-63
2021/09/29 00:45:11;;;;;;;1.33;0.55;;;21.00;99.90;;;;;;4935489;29;20119;-62
2021/09/29 00:47:37;;;;;;;1.95;0.60;;;21.00;99.90;;;;;;4935851;29;20389;-61
2021/09/29 00:50:08;;;;;;;1.80;0.70;;;21.00;99.90;;;;;;4935324;29;20086;-61
2021/09/29 00:52:34;;;;;;;1.83;0.70;;;21.00;99.90;;;;;;4935356;29;20031;-62
2021/09/29 00:55:01;;;;;;;2.75;0.50;;;21.00;99.90;;;;;;4929792;29;20500;-61
2021/09/29 00:57:26;;;;;;;1.65;0.60;;;21.00;99.90;;;;;;4935168;29;20067;-60
2021/09/29 00:59:52;;;;;;;1.83;0.50;;;21.00;99.90;;;;;;4935603;29;20066;-60
2021/09/29 01:02:21;;;;;;;8.77;0.90;;;21.00;99.90;;;;;;4935240;29;20027;-61
2021/09/29 01:04:48;;;;;;;1.10;0.47;;;21.00;99.90;;;;;;4935156;29;20032;-62
2021/09/29 01:07:31;;;;;;;1.55;0.55;;;21.00;99.90;;;;;;4934984;29;20074;-61
2021/09/29 01:10:22;;;;;;;1.67;0.70;;;21.00;99.90;;;;;;4935333;29;20035;-63
2021/09/29 01:13:02;;;;;;;3.03;0.63;;;20.90;99.90;;;;;;4935082;29;20508;-61
2021/09/29 01:15:31;;;;;;;1.80;0.50;;;20.90;99.90;;;;;;4921349;29;20035;-64
2021/09/29 01:18:04;;;;;;;1.63;0.60;;;20.90;99.90;;;;;;4935357;29;20384;-65
2021/09/29 01:20:50;;;;;;;2.83;0.83;;;20.90;99.90;;;;;;4930798;29;20027;-62
2021/09/29 01:23:29;;;;;;;2.20;0.80;;;20.90;99.90;;;;;;4934827;29;20889;-63
2021/09/29 01:25:57;;;;;;;3.13;0.60;;;20.90;99.90;;;;;;4949057;29;20090;-63
2021/09/29 01:28:35;;;;;;;1.88;0.60;;;20.90;99.90;;;;;;4953473;29;20024;-63
2021/09/29 01:31:01;;;;;;;1.45;0.52;;;20.90;99.90;;;;;;4933700;28;20038;-63
2021/09/29 01:33:29;;;;;;;2.40;0.63;;;20.90;99.90;;;;;;4935139;29;20028;-61
2021/09/29 01:35:55;;;;;;;1.42;0.60;;;20.90;99.90;;;;;;4935859;29;20044;-65
2021/09/29 01:38:22;;;;;;;2.42;0.60;;;20.80;99.90;;;;;;4944678;29;20115;-62
2021/09/29 01:40:48;;;;;;;1.17;0.63;;;20.80;99.90;;;;;;4934687;29;20508;-62
2021/09/29 01:43:13;;;;;;;1.27;0.40;;;20.80;99.90;;;;;;4935716;29;20064;-62
2021/09/29 01:45:39;;;;;;;1.55;0.60;;;20.80;99.90;;;;;;4952032;29;20034;-62
2021/09/29 01:48:06;;;;;;;1.38;0.60;;;20.80;99.90;;;;;;4943397;29;20043;-62
2021/09/29 01:50:32;;;;;;;2.83;0.80;;;20.80;99.90;;;;;;4951254;29;20024;-63
2021/09/29 01:53:00;;;;;;;2.50;0.73;;;20.80;99.90;;;;;;4936293;29;20310;-64
2021/09/29 01:55:27;;;;;;;2.13;0.82;;;20.80;99.90;;;;;;4922603;29;20464;-62
2021/09/29 01:57:54;;;;;;;2.13;0.70;;;20.70;99.90;;;;;;4954147;28;20103;-63
2021/09/29 02:00:23;;;;;;;1.45;0.52;;;20.80;99.90;;;;;;4938181;29;20028;-64
2021/09/29 02:02:49;;;;;;;0.93;0.40;;;20.70;99.90;;;;;;4948517;28;20031;-62
2021/09/29 02:05:25;;;;;;;1.88;0.65;;;20.70;99.90;;;;;;4951956;29;20031;-63
2021/09/29 02:07:50;;;;;;;1.13;0.40;;;20.70;99.90;;;;;;4946862;29;20089;-66
2021/09/29 02:10:16;;;;;;;0.98;0.47;;;20.70;99.90;;;;;;4936796;28;20114;-61
2021/09/29 02:12:42;;;;;;;2.50;0.82;;;20.70;99.90;;;;;;4946246;29;20384;-65
2021/09/29 02:15:08;;;;;;;2.15;0.60;;;20.70;99.90;;;;;;4940714;29;20484;-62
2021/09/29 02:17:33;;;;;;;8.57;0.82;;;20.70;99.90;;;;;;4952954;29;20031;-63
2021/09/29 02:19:59;;;;;;;3.65;0.70;;;20.70;99.90;;;;;;4951858;29;20078;-62
2021/09/29 02:22:24;;;;;;;1.67;0.70;;;20.70;99.90;;;;;;4945492;29;20041;-64
2021/09/29 02:24:50;;;;;;;2.00;0.82;;;20.70;99.90;;;;;;4946403;29;20033;-62
2021/09/29 02:27:16;;;;;;;2.38;0.65;;;20.60;99.90;;;;;;4953112;29;20031;-64
2021/09/29 02:29:41;;;;;;;1.38;0.60;;;20.60;99.90;;;;;;4942389;29;20111;-64
2021/09/29 02:32:08;;;;;;;3.03;0.90;;;20.60;99.90;;;;;;4934090;29;20020;-68
2021/09/29 02:34:33;;;;;;;2.38;0.80;;;20.60;99.90;;;;;;4943118;29;20047;-62
2021/09/29 02:36:59;;;;;;;1.88;0.63;;;20.60;99.90;;;;;;4945506;29;20047;-63
2021/09/29 02:39:25;;;;;;;0.95;0.55;;;20.60;99.90;;;;;;4951378;29;20035;-63
2021/09/29 02:41:50;;;;;;;1.20;0.60;;;20.60;99.90;;;;;;4952952;29;20484;-62
2021/09/29 02:44:16;;;;;;;1.08;0.47;;;20.60;99.90;;;;;;4952461;29;20078;-62
2021/09/29 02:46:43;;;;;;;1.25;0.40;;;20.60;99.90;;;;;;4952441;28;20031;-63
2021/09/29 02:49:10;;;;;;;1.52;0.60;;;20.60;99.90;;;;;;4950379;28;20126;-64
2021/09/29 02:51:36;;;;;;;1.95;0.60;;;20.60;99.90;;;;;;4937708;29;20055;-62
2021/09/29 02:54:02;;;;;;;2.30;0.60;;;20.50;99.90;;;;;;4938910;29;20472;-63
2021/09/29 02:56:29;;;;;;;2.03;0.47;;;20.50;99.90;;;;;;4947319;29;20511;-63
2021/09/29 02:58:56;;;;;;;2.22;0.93;;;20.50;99.90;;;;;;4954442;29;20039;-61
2021/09/29 03:01:22;;;;;;;1.83;0.50;;;20.50;99.90;;;;;;4941700;29;20027;-61
2021/09/29 03:03:48;;;;;;;1.65;0.60;;;20.50;99.90;;;;;;4937188;29;20047;-61
2021/09/29 03:06:14;;;;;;;1.80;0.60;;;20.50;99.90;;;;;;4950003;29;20031;-62
2021/09/29 03:08:40;;;;;;;1.40;0.60;;;20.50;99.90;;;;;;4947981;29;20083;-63
2021/09/29 03:11:05;;;;;;;1.50;0.60;;;20.50;99.90;;;;;;4939785;29;20083;-62
2021/09/29 03:13:31;;;;;;;2.00;0.70;;;20.40;99.90;;;;;;4937351;29;20024;-63
2021/09/29 03:15:57;;;;;;;1.58;0.45;;;20.50;99.90;;;;;;4949134;29;20488;-62
2021/09/29 03:18:22;;;;;;;0.93;0.38;;;20.40;99.90;;;;;;4921881;29;20488;-64
2021/09/29 03:20:48;;;;;;;3.33;0.60;;;20.40;99.90;;;;;;4937234;29;20031;-63
2021/09/29 03:23:14;;;;;;;1.80;0.52;;;20.50;99.90;;;;;;4935150;29;20031;-62
2021/09/29 03:25:40;;;;;;;2.13;0.55;;;20.40;99.90;;;;;;4955386;29;20041;-61
2021/09/29 03:28:06;;;;;;;1.63;0.70;;;20.40;99.90;;;;;;4955786;28;20039;-62
2021/09/29 03:30:32;;;;;;;2.22;0.63;;;20.40;99.90;;;;;;4939403;29;20087;-61
2021/09/29 03:32:58;;;;;;;1.23;0.40;;;20.40;99.90;;;;;;4937206;29;20512;-63
2021/09/29 03:35:24;;;;;;;1.55;0.60;;;20.40;99.90;;;;;;4937836;29;20070;-63
2021/09/29 03:37:50;;;;;;;1.75;0.50;;;20.40;99.90;;;;;;4948208;29;20039;-60
2021/09/29 03:40:17;;;;;;;1.67;0.60;;;20.40;99.90;;;;;;4937081;29;20032;-64
2021/09/29 03:42:45;;;;;;;0.52;0.30;;;20.40;99.90;;;;;;4936938;29;20102;-62
2021/09/29 03:45:12;;;;;;;1.50;0.50;;;20.40;99.90;;;;;;4950694;28;20035;-61
2021/09/29 03:47:41;;;;;;;1.15;0.47;;;20.40;99.90;;;;;;4946232;28;20040;-65
2021/09/29 03:50:08;;;;;;;4.40;0.55;;;20.30;99.90;;;;;;4938781;29;20503;-61
2021/09/29 03:52:34;;;;;;;1.58;0.60;;;20.40;99.90;;;;;;4955977;29;20102;-63
2021/09/29 03:55:00;;;;;;;2.47;0.50;;;20.40;99.90;;;;;;4942331;29;20601;-66
2021/09/29 03:57:26;;;;;;;1.63;0.50;;;20.40;99.90;;;;;;4937182;29;20035;-64
2021/09/29 03:59:51;;;;;;;0.95;0.30;;;20.30;99.90;;;;;;4947714;29;20030;-63
2021/09/29 04:02:17;;;;;;;2.15;0.60;;;20.30;99.90;;;;;;4944557;29;20384;-63
2021/09/29 04:04:42;;;;;;;2.50;0.65;;;20.30;99.90;;;;;;4940056;29;20500;-64
2021/09/29 04:07:08;;;;;;;1.85;0.60;;;20.30;99.90;;;;;;4936682;29;20020;-62
2021/09/29 04:09:34;;;;;;;1.20;0.60;;;20.30;99.90;;;;;;4938576;29;20099;-63
2021/09/29 04:11:59;;;;;;;2.08;0.70;;;20.30;99.90;;;;;;4935433;29;20027;-62
2021/09/29 04:14:25;;;;;;;2.60;0.93;;;20.30;99.90;;;;;;4944932;29;20122;-63
2021/09/29 04:16:51;;;;;;;1.00;0.32;;;20.30;99.90;;;;;;4955823;29;20039;-63
2021/09/29 04:19:17;;;;;;;1.08;0.60;;;20.30;99.90;;;;;;4942564;29;20032;-62
2021/09/29 04:21:43;;;;;;;3.03;0.55;;;20.30;99.90;;;;;;4936431;29;20032;-63
2021/09/29 04:24:10;;;;;;;1.70;0.45;;;20.30;99.90;;;;;;4920210;29;20512;-66
2021/09/29 04:26:38;;;;;;;2.53;0.73;;;20.30;99.90;;;;;;4939059;29;20030;-64
2021/09/29 04:29:04;;;;;;;2.58;0.70;;;20.20;99.90;;;;;;4949717;29;20038;-64
2021/09/29 04:31:29;;;;;;;2.17;0.60;;;20.30;99.90;;;;;;4944050;29;20036;-62
2021/09/29 04:33:55;;;;;;;0.68;0.43;;;20.20;99.90;;;;;;4936281;29;20028;-61
2021/09/29 04:36:20;;;;;;;1.50;0.57;;;20.20;99.90;;;;;;4954686;28;20047;-62
2021/09/29 04:38:46;;;;;;;1.67;0.63;;;20.20;99.90;;;;;;4953313;29;20103;-62
2021/09/29 04:41:12;;;;;;;1.25;0.52;;;20.20;99.90;;;;;;4955098;29;20436;-63
2021/09/29 04:43:37;;;;;;;1.30;0.65;;;20.20;99.90;;;;;;4954798;29;20029;-62
2021/09/29 04:46:03;;;;;;;1.92;0.85;;;20.20;99.90;;;;;;4954779;29;20039;-62
2021/09/29 04:48:29;;;;;;;1.55;0.50;;;20.20;99.90;;;;;;4938585;28;20106;-62
2021/09/29 04:50:54;;;;;;;2.20;0.70;;;20.20;99.90;;;;;;4919053;29;20035;-63
2021/09/29 04:53:20;;;;;;;3.20;0.70;;;20.20;99.90;;;;;;4935727;29;20020;-61
2021/09/29 04:55:46;;;;;;;1.17;0.50;;;20.20;99.90;;;;;;4938759;29;20039;-62
2021/09/29 04:58:12;;;;;;;2.58;0.52;;;20.20;99.90;;;;;;4947140;28;20187;-62
2021/09/29 05:00:38;;;;;;;1.42;0.40;;;20.20;99.90;;;;;;4952772;28;20023;-62
2021/09/29 05:03:04;;;;;;;1.35;0.50;;;20.20;99.90;;;;;;4936804;29;20090;-63
2021/09/29 05:05:33;;;;;;;1.30;0.40;;;20.20;99.90;;;;;;4936394;29;20039;-63
2021/09/29 05:08:00;;;;;;;1.33;0.55;;;20.20;99.90;;;;;;4939270;29;20078;-62
2021/09/29 05:10:33;;;;;;;1.08;0.40;;;20.10;99.90;;;;;;4943701;28;20436;-62
2021/09/29 05:13:02;;;;;;;2.53;0.60;;;20.20;99.90;;;;;;4936484;29;20051;-62
2021/09/29 05:15:28;;;;;;;0.75;0.30;;;20.10;99.90;;;;;;4954058;29;20063;-62
2021/09/29 05:17:53;;;;;;;0.98;0.40;;;20.10;99.90;;;;;;4955141;29;20413;-63
2021/09/29 05:20:19;;;;;;;1.17;0.30;;;20.10;99.90;;;;;;4939424;29;20477;-62
2021/09/29 05:22:44;;;;;;;0.73;0.30;;;20.10;99.90;;;;;;4935220;29;20032;-63
2021/09/29 05:25:10;;;;;;;1.45;0.50;;;20.10;99.90;;;;;;4949122;28;20090;-63
2021/09/29 05:27:36;;;;;;;1.23;0.40;;;20.10;99.90;;;;;;4954490;29;20497;-65
2021/09/29 05:30:04;;;;;;;1.90;0.40;;;20.10;99.90;;;;;;4924420;29;20429;-62
2021/09/29 05:32:29;;;;;;;1.08;0.43;;;20.10;99.90;;;;;;4936500;29;20477;-61
2021/09/29 05:34:55;;;;;;;1.23;0.40;;;20.10;99.90;;;;;;4940318;29;20091;-62
2021/09/29 05:37:21;;;;;;;0.93;0.40;;;20.10;99.90;;;;;;4939246;29;20523;-62
2021/09/29 05:39:46;;;;;;;0.73;0.40;;;20.10;99.90;;;;;;4938875;29;20393;-76
2021/09/29 05:42:12;;;;;;;1.15;0.30;;;20.10;99.90;;;;;;4935309;29;20110;-62
2021/09/29 05:44:39;;;;;;;2.80;0.38;;;20.00;99.90;;;;;;4944277;29;20424;-63
2021/09/29 05:47:05;;;;;;;2.35;0.50;;;20.10;99.90;;;;;;4943768;29;20036;-67
2021/09/29 05:49:31;;;;;;;1.63;0.65;;;20.00;99.90;;;;;;4934654;29;20031;-61
2021/09/29 05:51:56;;;;;;;1.55;0.52;;;20.10;99.90;;;;;;4934885;29;20499;-63
2021/09/29 05:54:22;;;;;;;2.20;0.40;;;20.10;99.90;;;;;;4938669;29;20032;-64
2021/09/29 05:56:48;;;;;;;2.25;0.40;;;20.10;99.90;;;;;;4934642;29;20043;-64
2021/09/29 05:59:14;;;;;;;1.67;0.40;;;20.10;99.90;;;;;;4931320;29;20388;-65
2021/09/29 06:01:40;;;;;;;1.58;0.40;;;20.00;99.90;;;;;;4953566;28;20071;-66
2021/09/29 06:04:06;;;;;;;1.98;0.52;;;20.00;99.90;;;;;;4951978;29;20102;-63
2021/09/29 06:06:32;;;;;;;3.05;0.50;;;20.10;99.90;;;;;;4935499;29;20078;-62
2021/09/29 06:08:57;;;;;;;4.50;0.35;;;20.10;99.90;;;;;;4941065;29;20023;-63
2021/09/29 06:11:23;;;;;;;3.10;0.57;;;20.00;99.90;;;;;;4939935;29;20032;-65
2021/09/29 06:13:49;;;;;;;4.50;0.60;;;20.00;99.90;;;;;;4934273;29;20023;-64
2021/09/29 06:16:15;;;;;;;1.60;0.60;;;20.10;99.90;;;;;;4934674;29;20058;-63
2021/09/29 06:18:41;;;;;;;6.10;0.50;;;20.10;99.90;;;;;;4937311;29;20439;-66
2021/09/29 06:21:07;;;;;;;3.03;0.80;;;20.10;99.90;;;;;;4953335;28;20031;-67
2021/09/29 06:23:34;;;;;;;3.75;1.00;;;20.00;99.90;;;;;;4924052;29;20388;-69
2021/09/29 06:26:01;;;;;;;1.88;0.50;;;20.10;99.90;;;;;;4935634;29;20059;-64
2021/09/29 06:28:32;;;;;;;1.35;0.50;;;20.00;99.90;;;;;;4933642;29;20051;-71
2021/09/29 06:30:58;;;;;;;1.77;0.43;;;20.10;99.90;;;;;;4934607;29;20031;-65
2021/09/29 06:33:23;;;;;;;2.05;0.40;;;20.10;99.90;;;;;;4933899;29;20019;-64
2021/09/29 06:35:49;;;;;;;1.38;0.65;;;20.10;99.90;;;;;;4933301;29;20048;-65
2021/09/29 06:38:15;;;;;;;1.20;0.55;;;20.00;99.90;;;;;;4932898;29;20381;-64
2021/09/29 06:40:41;;;;;;;2.08;0.57;;;20.00;99.90;;;;;;4916897;29;20067;-64
2021/09/29 06:43:06;;;;;;;1.77;0.50;;;20.00;99.90;;;;;;4934211;29;20101;-65
2021/09/29 06:45:33;;;;;;;1.58;0.50;;;20.00;99.90;;;;;;4933789;29;20098;-64
2021/09/29 06:47:59;;;;;;;1.20;0.50;;;20.00;99.90;;;;;;4933818;29;20046;-65
2021/09/29 06:50:25;;;;;;;1.58;0.65;;;20.00;99.90;;;;;;4933490;29;20028;-68
2021/09/29 06:52:50;;;;;;;0.85;0.45;;;20.00;99.90;;;;;;4933076;29;20082;-65
2021/09/29 06:55:16;;;;;;;1.10;0.50;;;20.00;99.90;;;;;;4932577;29;20032;-76
2021/09/29 06:57:42;;;;;;;3.63;0.73;;;20.00;99.90;;;;;;4932989;29;20027;-65
2021/09/29 07:00:09;;;;;;;3.17;0.68;;;20.00;99.90;;;;;;4932036;29;20024;-64
2021/09/29 07:02:40;;;;;;;1.65;0.75;;;19.90;99.90;;;;;;4933237;29;20043;-64
2021/09/29 07:05:06;;;;;;;5.50;0.80;;;19.90;99.90;;;;;;4930903;29;20079;-65
2021/09/29 07:07:34;;;;;;;1.75;0.70;;;19.90;99.90;;;;;;4932192;29;20019;-65
2021/09/29 07:10:00;;;;;;;3.53;1.08;;;19.90;99.90;;;;;;4934097;29;20079;-65
2021/09/29 07:12:26;;;;;;;1.63;0.80;;;19.90;99.90;;;;;;4934039;29;20028;-64
2021/09/29 07:14:51;;;;;;;2.15;0.80;;;19.90;99.90;;;;;;4933182;29;20385;-65
2021/09/29 07:17:17;;;;;;;3.25;0.95;;;19.90;99.90;;;;;;4933732;29;20377;-64
2021/09/29 07:19:42;;;;;;;2.72;0.90;;;19.90;99.90;;;;;;4933753;29;20520;-64
2021/09/29 07:22:08;;;;;;;2.83;0.80;;;19.80;99.90;;;;;;4934106;29;20028;-65
2021/09/29 07:24:34;;;;;;;1.02;0.68;;;19.80;99.90;;;;;;4933473;29;20027;-66
2021/09/29 07:27:00;;;;;;;4.78;1.20;;;19.90;99.90;;;;;;4933804;29;20492;-64
2021/09/29 07:29:27;;;;;;;1.98;0.95;;;19.80;99.90;;;;;;4933791;29;20032;-65
2021/09/29 07:31:52;;;;;;;3.70;0.93;;;19.90;99.90;;;;;;4917047;29;20034;-65
2021/09/29 07:34:19;;;;;;;2.22;0.80;;;19.80;99.90;;;;;;4936132;29;20019;-65
2021/09/29 07:36:44;;;;;;;1.85;0.88;;;19.80;99.90;;;;;;4937307;29;20048;-64
2021/09/29 07:39:10;;;;;;;1.95;0.90;;;19.80;99.90;;;;;;4937251;29;20174;-64
2021/09/29 07:41:37;;;;;;;2.42;0.90;;;19.80;99.90;;;;;;4937157;29;20024;-64
2021/09/29 07:44:03;;;;;;;2.75;1.00;;;19.80;99.90;;;;;;4937386;29;20031;-67
2021/09/29 07:46:29;;;;;;;1.90;1.00;;;19.80;99.90;;;;;;4936955;29;20024;-64
2021/09/29 07:48:54;;;;;;;1.42;0.70;;;19.80;99.90;;;;;;4937424;29;20503;-64
2021/09/29 07:51:20;;;;;;;2.25;0.88;;;19.80;99.90;;;;;;4937069;29;20024;-64
2021/09/29 07:53:46;;;;;;;1.98;0.75;;;19.80;99.90;;;;;;4936724;29;20031;-64
2021/09/29 07:56:11;;;;;;;2.55;0.82;;;19.80;99.90;;;;;;4936923;29;20034;-65
2021/09/29 07:58:37;;;;;;;1.70;0.70;;;19.70;99.90;;;;;;4936716;29;20099;-64
2021/09/29 08:01:03;;;;;;;2.33;0.73;;;19.70;99.90;;;;;;4936983;29;20036;-64
2021/09/29 08:03:28;;;;;;;2.65;0.80;;;19.70;99.90;;;;;;4919419;29;20474;-64
2021/09/29 08:05:59;;;;;;;2.25;0.88;;;19.70;99.90;;;;;;4937137;29;20087;-64
2021/09/29 08:08:24;;;;;;;2.17;0.73;;;19.70;99.90;;;;;;4936940;29;20066;-64
2021/09/29 08:10:50;;;;;;;1.95;0.70;;;19.70;99.90;;;;;;4936779;29;20059;-64
2021/09/29 08:13:16;;;;;;;1.45;0.60;;;19.70;99.90;;;;;;4936722;29;20067;-64
2021/09/29 08:15:41;;;;;;;1.40;0.70;;;19.70;99.90;;;;;;4936477;29;20027;-65
2021/09/29 08:18:07;;;;;;;1.92;0.68;;;19.70;99.90;;;;;;4936635;29;20446;-63
2021/09/29 08:20:37;;;;;;;1.58;0.70;;;19.70;99.90;;;;;;4936578;29;20027;-63
2021/09/29 08:23:14;;;;;;;2.08;0.60;;;19.60;99.90;;;;;;4936490;29;20568;-63
2021/09/29 08:33:43;;;;;;;1.35;0.60;;;19.70;99.90;;;;;;4936949;29;20028;-63
2021/09/29 08:43:59;;;;;;;1.90;0.70;;;19.60;99.90;;;;;;4935855;29;20472;-65
2021/09/29 08:46:32;;;;;;;1.52;0.65;;;19.70;99.90;;;;;;4935565;29;20110;-66
2021/09/29 08:49:09;;;;;;;2.50;0.85;;;19.70;99.90;;;;;;4936175;29;20027;-64
2021/09/29 08:54:53;;;;;;;1.45;0.50;;;19.60;99.90;;;;;;4935960;29;20448;-62
2021/09/29 09:16:32;;;;;;;3.25;0.60;;;19.70;99.90;;;;;;4935777;29;20066;-62
2021/09/29 09:19:03;;;;;;;0.90;0.50;;;19.70;99.90;;;;;;4935459;29;20015;-62
2021/09/29 09:21:33;;;;;;;2.25;0.70;;;19.70;99.90;;;;;;4935193;29;20048;-62
2021/09/29 09:23:59;;;;;;;1.95;0.70;;;19.70;99.90;;;;;;4935416;29;20032;-62
2021/09/29 09:26:27;;;;;;;1.33;0.50;;;19.70;99.90;;;;;;4935431;29;20042;-62
2021/09/29 09:29:12;;;;;;;1.42;0.50;;;19.70;99.90;;;;;;4934990;29;20020;-62
2021/09/29 09:31:39;;;;;;;0.70;0.40;;;19.70;99.90;;;;;;4935073;29;20097;-62
2021/09/29 09:34:07;;;;;;;1.23;0.38;;;19.70;99.90;;;;;;4935107;29;20043;-62
2021/09/29 09:36:34;;;;;;;2.22;0.50;;;19.70;99.90;;;;;;4934838;29;20078;-62
2021/09/29 09:39:10;;;;;;;2.08;0.60;;;19.70;99.90;;;;;;4935120;29;20028;-62
2021/09/29 09:41:37;;;;;;;1.73;0.50;;;19.70;99.90;;;;;;4934970;29;20392;-63
2021/09/29 09:44:04;;;;;;;2.00;0.50;;;19.70;99.90;;;;;;4935012;29;20026;-62
2021/09/29 09:46:30;;;;;;;1.73;0.50;;;19.70;99.90;;;;;;4934666;29;20062;-62
2021/09/29 09:49:05;;;;;;;1.77;0.47;;;19.70;99.90;;;;;;4934903;29;20020;-62
2021/09/29 09:51:33;;;;;;;1.15;0.50;;;19.70;99.90;;;;;;4934766;29;20027;-62
2021/09/29 09:53:59;;;;;;;1.65;0.75;;;19.70;99.90;;;;;;4935048;29;20051;-64
2021/09/29 09:56:30;;;;;;;0.75;0.32;;;19.70;99.90;;;;;;4934765;29;20042;-63
2021/09/29 09:58:57;;;;;;;1.48;0.47;;;19.70;99.90;;;;;;4934951;29;20388;-62
2021/09/29 10:01:29;;;;;;;2.53;0.55;;;19.80;99.90;;;;;;4935271;29;20039;-64
2021/09/29 10:03:55;;;;;;;0.95;0.38;;;19.80;99.90;;;;;;4935018;29;20020;-68
2021/09/29 10:06:23;;;;;;;1.20;0.32;;;19.80;99.90;;;;;;4935081;29;20496;-66
2021/09/29 10:08:56;;;;;;;1.38;0.50;;;19.80;99.90;;;;;;4934440;29;20381;-71
2021/09/29 10:11:35;;;;;;;0.85;0.50;;;19.80;99.90;;;;;;4934896;29;20028;-69
2021/09/29 10:22:54;;;;;;;1.33;0.40;;;19.90;99.90;;;;;;4934602;29;20039;-62
2021/09/29 10:26:23;;;;;;;1.33;0.50;;;19.90;99.90;;;;;;4934330;29;20396;-64
2021/09/29 10:28:18;;;;;;;2.13;0.60;;;19.80;99.90;;;;;;4929707;29;20039;-68
2021/09/29 10:33:40;;;;;;;1.33;0.30;;;19.90;99.90;;;;;;4934278;29;20035;-67
2021/09/29 10:44:32;;;;;;;0.68;0.38;;;19.90;99.90;;;;;;4934581;29;20047;-65
2021/09/29 11:33:39;;;;;;;1.20;0.38;;;20.20;99.90;;;;;;4937500;29;20024;-62
2021/09/29 11:39:23;;;;;;;2.63;0.50;;;20.20;99.90;;;;;;4937131;29;20027;-62
2021/09/29 12:08:51;;;;;;;;;;;20.40;99.90;;;;;;4937016;29;20039;-62
2021/09/29 12:11:22;;;;;;;0.75;0.30;;;20.40;99.90;;;;;;4919752;29;19906;-62
2021/09/29 12:14:04;;;;;;;0.45;0.20;;;20.40;99.90;;;;;;4936466;29;20020;-62
2021/09/29 12:16:34;;;;;;;0.77;0.40;;;20.40;99.90;;;;;;4936329;29;20035;-62
2021/09/29 12:19:05;;;;;;;1.30;0.30;;;20.40;99.90;;;;;;4936560;29;20027;-62
2021/09/29 12:21:47;;;;;;;0.60;0.20;;;20.50;99.90;;;;;;4936531;29;20104;-61
2021/09/29 12:24:26;;;;;;;1.02;0.38;;;20.50;99.90;;;;;;4936584;29;20032;-61
2021/09/29 12:26:54;;;;;;;0.63;0.28;;;20.50;99.90;;;;;;4936753;29;20028;-61
2021/09/29 12:29:32;;;;;;;0.50;0.30;;;20.50;99.90;;;;;;4936749;29;20031;-62
2021/09/29 12:37:34;;;;;;;1.00;0.38;;;20.60;99.90;;;;;;4936316;29;20157;-69
2021/09/29 12:39:59;;;;;;;0.77;0.30;;;20.60;99.90;;;;;;4936259;29;20042;-65
2021/09/29 12:42:38;;;;;;;0.60;0.30;;;20.60;99.90;;;;;;4936622;29;20035;-65
2021/09/29 12:45:04;;;;;;;0.57;0.30;;;20.60;99.90;;;;;;4936432;29;20066;-64
2021/09/29 12:50:00;;;;;;;0.70;0.20;;;20.70;99.90;;;;;;4936417;29;20032;-67
2021/09/29 12:52:29;;;;;;;1.13;0.30;;;20.70;99.90;;;;;;4935953;29;20036;-63
2021/09/29 12:54:57;;;;;;;0.60;0.20;;;20.70;99.90;;;;;;4936373;29;20082;-63
2021/09/29 12:57:30;;;;;;;2.58;0.30;;;20.70;99.90;;;;;;4936415;29;20071;-66
2021/09/29 12:59:59;;;;;;;0.80;0.22;;;20.60;99.90;;;;;;4936082;29;20500;-64
2021/09/29 13:02:26;;;;;;;1.33;0.40;;;20.60;99.90;;;;;;4936130;29;20127;-64
2021/09/29 13:04:53;;;;;;;1.20;0.30;;;20.70;99.90;;;;;;4936191;29;20058;-64
2021/09/29 13:07:18;;;;;;;1.15;0.30;;;20.70;99.90;;;;;;4935745;29;20027;-63
2021/09/29 13:09:44;;;;;;;0.95;0.30;;;20.70;99.90;;;;;;4935347;29;20115;-64
2021/09/29 13:12:11;;;;;;;0.20;0.20;;;20.70;99.90;;;;;;4935707;29;20028;-68
2021/09/29 13:14:38;;;;;;;0.65;0.25;;;20.70;99.90;;;;;;4935274;29;20051;-62
2021/09/29 13:17:05;;;;;;;1.13;0.30;;;20.70;99.90;;;;;;4935519;29;20122;-64
2021/09/29 13:19:42;;;;;;;1.00;0.30;;;20.80;99.90;;;;;;4935235;29;20020;-66
2021/09/29 13:22:24;;;;;;;0.70;0.32;;;20.80;99.90;;;;;;4935770;29;20063;-64
2021/09/29 13:37:37;;;;;;;0.93;0.30;;;20.80;99.90;;;;;;4935084;29;20047;-62
2021/09/29 13:40:05;;;;;;;0.93;0.20;;;20.90;99.90;;;;;;4935146;29;20027;-62
2021/09/29 13:42:30;;;;;;;1.17;0.30;;;20.90;99.90;;;;;;4934688;29;20034;-64
2021/09/29 13:44:57;;;;;;;0.60;0.20;;;20.90;99.90;;;;;;4935024;29;20023;-61
2021/09/29 13:47:23;;;;;;;0.82;0.30;;;20.90;99.90;;;;;;4935266;29;20031;-62
2021/09/29 13:49:49;;;;;;;0.60;0.30;;;20.90;99.90;;;;;;4934757;29;20020;-67
2021/09/29 13:52:19;;;;;;;0.63;0.20;;;20.90;99.90;;;;;;4934837;29;20032;-64
2021/09/29 13:54:45;;;;;;;0.93;0.32;;;20.90;99.90;;;;;;4934570;29;20031;-66
2021/09/29 13:57:20;;;;;;;1.27;0.30;;;20.90;99.90;;;;;;4934824;29;20047;-67
2021/09/29 13:59:57;;;;;;;0.50;0.20;;;20.90;99.90;;;;;;4934782;29;20075;-63
2021/09/29 14:30:17;;;;;;;0.60;0.20;;;21.00;99.90;;;;;;4934548;29;19962;-70
2021/09/29 14:35:15;;;;;;;1.02;0.30;;;21.00;99.90;;;;;;4934716;29;20491;-63
2021/09/29 14:37:41;;;;;;;0.52;0.28;;;21.10;99.90;;;;;;4933926;29;20040;-72
2021/09/29 14:40:07;;;;;;;0.50;0.20;;;21.10;99.90;;;;;;4934211;29;20115;-69
2021/09/29 14:42:32;;;;;;;0.73;0.13;;;21.10;99.90;;;;;;4933391;29;20031;-64
2021/09/29 14:44:58;;;;;;;0.65;0.20;;;21.10;99.90;;;;;;4934264;29;20024;-66
2021/09/29 14:47:24;;;;;;;0.82;0.30;;;21.10;99.90;;;;;;4934545;29;20075;-68
2021/09/29 14:49:49;;;;;;;0.45;0.20;;;21.10;99.90;;;;;;4933943;29;20031;-67
2021/09/29 14:52:15;;;;;;;1.05;0.40;;;21.10;99.90;;;;;;4934216;29;20027;-65
2021/09/29 14:54:41;;;;;;;0.50;0.17;;;21.20;99.90;;;;;;4933906;29;20536;-63
2021/09/29 14:57:11;;;;;;;1.02;0.20;;;21.20;99.90;;;;;;4934026;29;20031;-63
2021/09/29 14:59:41;;;;;;;1.38;0.40;;;21.20;99.90;;;;;;4933797;29;20059;-66
2021/09/29 15:02:08;;;;;;;0.85;0.28;;;21.20;99.90;;;;;;4934300;29;20043;-63
2021/09/29 15:04:33;;;;;;;0.75;0.22;;;21.20;99.90;;;;;;4934120;29;20082;-62
2021/09/29 15:06:59;;;;;;;1.05;0.30;;;21.20;99.90;;;;;;4934150;29;20425;-66
2021/09/29 15:09:25;;;;;;;0.50;0.20;;;21.20;99.90;;;;;;4934470;29;20024;-67
2021/09/29 15:11:50;;;;;;;0.35;0.15;;;21.30;99.90;;;;;;4934571;29;20585;-62
2021/09/29 15:14:25;;;;;;;0.43;0.20;;;21.30;99.90;;;;;;4934197;29;20357;-64
2021/09/29 15:16:58;;;;;;;0.60;0.20;;;21.30;99.90;;;;;;4933977;29;20064;-64
2021/09/29 15:24:49;;;;;;;0.40;0.20;;;21.30;99.90;;;;;;4933790;29;20032;-65
2021/09/29 15:48:40;;;;;;;0.63;0.20;;;21.40;99.90;;;;;;4933817;29;20077;-64
2021/09/29 15:56:11;;;;;;;0.52;0.28;;;21.40;99.90;;;;;;4937032;29;20407;-65
2021/09/29 16:37:44;;;;;;;0.43;0.25;;;21.50;99.90;;;;;;4935719;29;20063;-63
2021/09/29 16:40:12;;;;;;;0.50;0.20;;;21.50;99.90;;;;;;4936274;29;20028;-70
2021/09/29 16:42:37;;;;;;;1.40;0.30;;;21.50;99.90;;;;;;4935876;29;20061;-63
2021/09/29 16:45:08;;;;;;;0.73;0.30;;;21.50;99.90;;;;;;4935917;29;20028;-66
2021/09/29 16:47:34;;;;;;;0.95;0.40;;;21.50;99.90;;;;;;4935672;29;20028;-71
2021/09/29 16:50:00;;;;;;;0.95;0.22;;;21.50;99.90;;;;;;4935787;29;20032;-60
2021/09/29 16:52:46;;;;;;;2.15;0.45;;;21.50;99.90;;;;;;4935826;29;20023;-60
2021/09/29 16:55:14;;;;;;;2.15;0.30;;;21.50;99.90;;;;;;4934490;29;20499;-62
2021/09/29 16:57:47;;;;;;;1.20;0.30;;;21.50;99.90;;;;;;4935463;29;20032;-69
2021/09/29 17:00:24;;;;;;;3.15;0.40;;;21.50;99.90;;;;;;4936216;29;20028;-63
2021/09/29 17:02:50;;;;;;;1.13;0.32;;;21.60;99.90;;;;;;4920355;29;20051;-61
2021/09/29 17:05:15;;;;;;;1.90;0.40;;;21.50;99.90;;;;;;4935210;29;20036;-59
2021/09/29 17:07:41;;;;;;;3.42;0.50;;;21.50;99.90;;;;;;4917578;29;20035;-60